WELCOME TO Fly Ecuador Virtual

Fly Ecuador Virtual es una organización creada con el fin de brindar una plataforma que permita a los pilotos virtuales, principalmente ecuatorianos, tener un lugar donde registrar sus horas de vuelo, sus certificados de conocimiento adquiridos, las rutas que han volado y los destinos que han visitado. Así mismo, se busca ayudar a todos los pilotos a expandir su conocimiento sobre el mundo de la aviación real y virtual por medio de publicaciones, foros y cursos en línea.

A diferencia de las aerolíneas virtuales tradicionales, Fly Ecuador Virtual no simula las operaciones de una aerolínea del mundo real en específico. Un miembro de Fly Ecuador Virtual tiene toda la libertad de volar cualquier aeronave que opere en el espacio aéreo ecuatoriano real, en cualquier ruta, sea esta nacional o internacional, IFR o VFR, aeronaves monomotor, multimotor o helicópteros. Todo esto con el objetivo de expandir las operaciones virtuales dentro del espacio aéreo ecuatoriano, creando una comunidad en la que se compartan conocimientos y experiencias que beneficien a todos sus integrantes.

El crecimiento de Fly Ecuador Virtual depende de la participación conjunta de todos sus miembros, por este motivo se incentiva la participación en línea a través de los diferentes medios descritos más adelante en este sitio web.

 STATISTICS

Pilots 77
Aircraft in fleet 0
Routes 0
Total hours: 10517.24
Flights total 1688
Flights Regular 0
Flights Charter 1735
% Flights Regular 0.00 %

 LATEST FLIGHTS

CallsignPilotDepartureArrivalDateFlight Time
ECU018Luis Heredia  SEGU  SEQM 2018-12-09 0.47
ECU024Arturo Carvajal  SVMI  SEQM 2018-12-09 2.18
ECU018Luis Heredia  SEGU  SEQM 2018-11-25 0.59
ECU024Arturo Carvajal  SEGU  SEQM 2018-11-25 0.54
ECU024Arturo Carvajal  SEGS  MRLB 2018-11-11 1.99

 NEWEST PILOTS

 Consultar METAR

METAR
SEGU - José Joaquín de Olmedo International Airport, Guayaquil, ECU
Distance from station: N 0mi, 0km
Updated: Tue, 11-Dec-2018 7:00pm PST
Clear
Clear
 Wind from SW
Wind: SW 9 mph , 15 km/h
Temperature: 79°F , 26°C
Dew Point: 70°F , 21°C
Humidity: 74%
Barometer: 29.88 inHg , 1012 hPa
Summary: Clear
Visibility: greater than 7 miles , 10 km
2018/12/12 03:00 SEGU 120300Z 22008KT CAVOK 26/21 Q1012 NOSIG RMK A2989
 
SEQM - Aeropuerto Internacional Mariscal Sucre, ECU
Distance from station: NE 120mi, 200km
Updated: Tue, 11-Dec-2018 7:00pm PST
Patches of fog, Overcast
Patches of fog, Overcast
 Wind from N
Wind: N 7 mph , 11 km/h
Temperature: 57°F , 14°C
Dew Point: 57°F , 14°C
Humidity: 100%
Barometer: 30.39 inHg , 1029 hPa
Summary: Patches of Fog
Clouds: Overcast
Visibility: 4 miles , 6 km
Cloud details: Mostly Cloudy 300 ft
Overcast 1200 ft
2018/12/12 03:00 SEQM 120300Z 36006KT 6000 BCFG BKN003 OVC012 14/14 Q1029 TEMPO TL0340 4000 RMK A3039
 
SECU - Mariscal Lamar Airpor, ECU
Distance from station: ENE 80mi, 120km
Updated: Tue, 11-Dec-2018 7:00pm PST
Partly Cloudy
Partly Cloudy
 Wind from NE
Wind: NE 2 mph , 4 km/h
Temperature: 55°F , 13°C
Dew Point: 55°F , 13°C
Humidity: 100%
Barometer: 30.39 inHg , 1029 hPa
Clouds: Partly Cloudy
Visibility: 6 miles , 10 km
Cloud details: Partly Cloudy 3000 ft
Partly Cloudy 10000 ft
2018/12/12 03:00 SECU 120300Z 05002KT 9999 SCT030 SCT100 13/13 Q1029
 
SELT - Cotopaxi International Airport, ECU
Distance from station: NW 21mi, 34km
Updated: Tue, 11-Dec-2018 7:00pm PST
Mostly Cloudy
Mostly Cloudy
 Wind from SSW
Wind: SSW 5 mph , 7 km/h
Temperature: 52°F , 11°C
Dew Point: 50°F , 10°C
Humidity: 94%
Barometer: 30.5 inHg , 1033 hPa
Clouds: Mostly Cloudy
Visibility: 6 miles , 10 km
Cloud details: Mostly Cloudy 3000 ft
2018/12/12 03:00 SELT 120300Z 21004KT 9999 BKN030 11/10 Q1033
 
SEMT - Eloy Alfaro International Airport, ECU
Distance from station: SSE 70mi, 100km
Updated: Tue, 11-Dec-2018 6:00pm PST
NOT Current
Mostly Cloudy
Mostly Cloudy
 Wind from SSW
Wind: SSW 7 mph , 11 km/h
Temperature: 77°F , 25°C
Dew Point: 70°F , 21°C
Humidity: 79%
Barometer: 29.91 inHg , 1013 hPa
Clouds: Mostly Cloudy
Visibility: 6 miles , 10 km
Cloud details: Mostly Cloudy 2000 ft
2018/12/12 02:00 SEMT 120200Z 21006KT 9999 BKN020 25/21 Q1013 RMK A2995

Metar display script from Saratoga-Weather.org

 NOTAMS

NOTAMDate



Fly Ecuador Virtual 2018 | System by VAM